Time;durP1;ratioP1;P1;durP2;ratioP2;P2;SDS_P1;SDS_P2;PMS_P1;PMS_P2;Temp;Humidity;BMP_temperature;BMP_pressure;BME280_temperature;BME280_humidity;BME280_pressure;Samples;Min_cycle;Max_cycle;Signal;HPM_P1;HPM_P2
2022/11/25 00:02:43;;;;;;;16.65;12.63;;;;;;;;;;9989965;28;20101;-69
2022/11/25 00:07:39;;;;;;;13.27;9.52;;;;;;;;;;9989272;28;20040;-68
2022/11/25 00:12:32;;;;;;;11.55;8.27;;;;;;;;;;9989573;28;20082;-69
2022/11/25 00:17:26;;;;;;;7.93;7.13;;;;;;;;;;9989202;28;20057;-69
2022/11/25 00:22:20;;;;;;;14.32;10.88;;;;;;;;;;9988850;28;20557;-69
2022/11/25 00:27:14;;;;;;;15.15;11.85;;;;;;;;;;9984584;28;20069;-69
2022/11/25 00:32:09;;;;;;;23.42;13.32;;;;;;;;;;9984243;28;20136;-69
2022/11/25 00:37:02;;;;;;;14.82;12.18;;;;;;;;;;9971558;28;20520;-69
2022/11/25 00:47:19;;;;;;;16.38;12.00;;;;;;;;;;9971024;28;20042;-69
2022/11/25 00:52:15;;;;;;;15.85;12.07;;;;;;;;;;9987783;28;20101;-69
2022/11/25 00:57:09;;;;;;;13.50;11.68;;;;;;;;;;9970064;28;20056;-69
2022/11/25 01:02:03;;;;;;;15.07;12.65;;;;;;;;;;9968287;28;20074;-68
2022/11/25 01:06:58;;;;;;;20.35;13.70;;;;;;;;;;9988058;28;20056;-69
2022/11/25 01:11:52;;;;;;;17.10;13.50;;;;;;;;;;9987467;28;20100;-70
2022/11/25 01:16:46;;;;;;;17.60;12.95;;;;;;;;;;9970681;28;20105;-69
2022/11/25 01:21:39;;;;;;;17.17;13.93;;;;;;;;;;9970771;28;20051;-69
2022/11/25 01:26:32;;;;;;;19.52;13.15;;;;;;;;;;9970283;28;20552;-70
2022/11/25 01:31:27;;;;;;;15.50;13.20;;;;;;;;;;9987182;28;20054;-69
2022/11/25 01:36:21;;;;;;;21.10;12.85;;;;;;;;;;9969672;28;20093;-69
2022/11/25 01:41:14;;;;;;;16.45;14.75;;;;;;;;;;9987209;28;20043;-69
2022/11/25 01:46:18;;;;;;;19.10;14.95;;;;;;;;;;9963195;28;20497;-69
2022/11/25 01:51:39;;;;;;;15.45;13.85;;;;;;;;;;9963970;28;20149;-69
2022/11/25 01:56:53;;;;;;;18.50;14.68;;;;;;;;;;9969056;28;20142;-69
2022/11/25 02:01:47;;;;;;;15.80;13.55;;;;;;;;;;9949599;28;20047;-70
2022/11/25 02:06:46;;;;;;;15.07;13.43;;;;;;;;;;9968922;28;20569;-69
2022/11/25 02:11:40;;;;;;;15.23;13.63;;;;;;;;;;9984858;28;20069;-69
2022/11/25 02:16:33;;;;;;;16.15;13.77;;;;;;;;;;9983988;28;20053;-69
2022/11/25 02:21:40;;;;;;;17.15;13.93;;;;;;;;;;9987550;28;20116;-69
2022/11/25 02:26:33;;;;;;;16.58;13.90;;;;;;;;;;9971436;28;20050;-69
2022/11/25 02:31:27;;;;;;;16.95;13.63;;;;;;;;;;9973920;28;20076;-69
2022/11/25 02:36:21;;;;;;;14.65;13.15;;;;;;;;;;9974125;28;20058;-68
2022/11/25 02:41:19;;;;;;;14.35;12.68;;;;;;;;;;9990388;28;20050;-69
2022/11/25 02:46:22;;;;;;;15.13;12.93;;;;;;;;;;9953660;28;20528;-69
2022/11/25 02:51:17;;;;;;;17.15;13.63;;;;;;;;;;9974036;28;20053;-69
2022/11/25 02:56:12;;;;;;;13.05;11.75;;;;;;;;;;9974848;28;20039;-69
2022/11/25 03:01:07;;;;;;;15.32;13.25;;;;;;;;;;9974933;28;20141;-69
2022/11/25 03:06:01;;;;;;;14.95;13.40;;;;;;;;;;9991562;28;20129;-69
2022/11/25 03:10:54;;;;;;;19.35;13.57;;;;;;;;;;9971367;28;20113;-69
2022/11/25 03:15:49;;;;;;;17.42;12.30;;;;;;;;;;9991519;28;20050;-69
2022/11/25 03:20:42;;;;;;;13.63;11.88;;;;;;;;;;9989212;28;20054;-68
2022/11/25 03:25:36;;;;;;;12.65;11.32;;;;;;;;;;9990338;28;20483;-70
2022/11/25 03:30:29;;;;;;;10.70;9.60;;;;;;;;;;9972422;28;20055;-69
2022/11/25 03:35:25;;;;;;;12.82;11.63;;;;;;;;;;9972043;28;20556;-69
2022/11/25 03:40:19;;;;;;;12.43;10.80;;;;;;;;;;9973134;28;20141;-69
2022/11/25 03:45:16;;;;;;;13.10;10.40;;;;;;;;;;9973649;28;20065;-69
2022/11/25 03:50:13;;;;;;;11.90;10.68;;;;;;;;;;9972986;28;20410;-69
2022/11/25 03:55:11;;;;;;;12.30;10.70;;;;;;;;;;9988550;28;20096;-69
2022/11/25 04:00:11;;;;;;;16.58;10.80;;;;;;;;;;9976758;28;20513;-69
2022/11/25 04:05:24;;;;;;;15.02;10.98;;;;;;;;;;9988128;28;20046;-68
2022/11/25 04:10:21;;;;;;;12.40;11.05;;;;;;;;;;9971061;28;20050;-69
2022/11/25 04:15:16;;;;;;;11.98;9.07;;;;;;;;;;9989534;28;20413;-69
2022/11/25 04:20:14;;;;;;;16.05;10.57;;;;;;;;;;9972264;28;20053;-69
2022/11/25 04:25:13;;;;;;;15.43;11.13;;;;;;;;;;9971775;28;20581;-69
2022/11/25 04:30:09;;;;;;;13.20;11.75;;;;;;;;;;9971417;28;20074;-68
2022/11/25 04:35:07;;;;;;;12.90;10.73;;;;;;;;;;9971594;28;20145;-69
2022/11/25 04:40:02;;;;;;;11.05;9.38;;;;;;;;;;9965837;28;20145;-69
2022/11/25 04:44:58;;;;;;;14.75;10.35;;;;;;;;;;9969079;28;20132;-68
2022/11/25 04:50:18;;;;;;;14.40;10.23;;;;;;;;;;9963428;28;20142;-69
2022/11/25 04:55:24;;;;;;;15.90;9.40;;;;;;;;;;9959941;28;20133;-68
2022/11/25 05:00:21;;;;;;;11.43;9.18;;;;;;;;;;9969470;28;20042;-68
2022/11/25 05:05:17;;;;;;;10.55;9.52;;;;;;;;;;9956949;28;20104;-68
2022/11/25 05:10:10;;;;;;;14.68;11.25;;;;;;;;;;9987777;28;20042;-69
2022/11/25 05:15:11;;;;;;;17.20;11.13;;;;;;;;;;9970405;28;20078;-69
2022/11/25 05:20:11;;;;;;;15.43;12.05;;;;;;;;;;9970563;28;20489;-69
2022/11/25 05:25:05;;;;;;;17.92;10.25;;;;;;;;;;9983363;28;20054;-69
2022/11/25 05:30:05;;;;;;;15.80;11.23;;;;;;;;;;9961736;28;20054;-68
2022/11/25 05:34:59;;;;;;;13.30;11.88;;;;;;;;;;9986843;28;20077;-69
2022/11/25 05:39:52;;;;;;;13.02;11.18;;;;;;;;;;9969981;28;20038;-68
2022/11/25 05:45:21;;;;;;;12.25;11.02;;;;;;;;;;9974315;28;20065;-69
2022/11/25 05:50:15;;;;;;;13.32;11.60;;;;;;;;;;9969971;28;20058;-69
2022/11/25 05:55:27;;;;;;;13.57;9.55;;;;;;;;;;9987795;28;20038;-69
2022/11/25 06:00:23;;;;;;;14.57;11.65;;;;;;;;;;9976726;28;20085;-69
2022/11/25 06:05:25;;;;;;;16.38;12.10;;;;;;;;;;9976480;28;20074;-69
2022/11/25 06:10:20;;;;;;;12.07;10.73;;;;;;;;;;9992143;28;20054;-69
2022/11/25 06:15:15;;;;;;;14.40;12.10;;;;;;;;;;9974953;28;20425;-69
2022/11/25 06:20:10;;;;;;;15.75;11.65;;;;;;;;;;9974641;28;20441;-69
2022/11/25 06:25:04;;;;;;;14.40;11.52;;;;;;;;;;9988257;28;20053;-68
2022/11/25 06:30:00;;;;;;;13.40;11.57;;;;;;;;;;9979317;28;20556;-69
2022/11/25 06:34:53;;;;;;;15.68;12.80;;;;;;;;;;9991681;28;20069;-70
2022/11/25 06:40:19;;;;;;;12.50;11.20;;;;;;;;;;9990809;28;20116;-70
2022/11/25 06:45:29;;;;;;;13.52;11.63;;;;;;;;;;9989293;28;20050;-69
2022/11/25 06:50:23;;;;;;;21.33;12.43;;;;;;;;;;9991280;28;20080;-69
2022/11/25 06:55:17;;;;;;;19.25;13.73;;;;;;;;;;9991438;28;20513;-70
2022/11/25 07:00:14;;;;;;;15.93;14.02;;;;;;;;;;9990128;28;20046;-70
2022/11/25 07:05:08;;;;;;;14.98;10.85;;;;;;;;;;9989853;28;20057;-67
2022/11/25 07:10:03;;;;;;;12.23;10.85;;;;;;;;;;9991860;28;20387;-68
2022/11/25 07:14:57;;;;;;;16.85;12.88;;;;;;;;;;9986412;28;20086;-68
2022/11/25 07:19:51;;;;;;;13.57;11.43;;;;;;;;;;9989784;28;20488;-67
2022/11/25 07:24:45;;;;;;;13.60;11.18;;;;;;;;;;9983917;28;20050;-71
2022/11/25 07:29:38;;;;;;;13.38;11.95;;;;;;;;;;9987900;28;20079;-71
2022/11/25 07:34:52;;;;;;;15.90;11.93;;;;;;;;;;9990392;28;20042;-70
2022/11/25 07:39:45;;;;;;;12.82;11.50;;;;;;;;;;9989762;28;20570;-70
2022/11/25 07:44:39;;;;;;;17.83;13.52;;;;;;;;;;9989521;28;20046;-71
2022/11/25 07:49:57;;;;;;;16.13;12.13;;;;;;;;;;9978006;28;20061;-70
2022/11/25 07:54:52;;;;;;;13.02;10.98;;;;;;;;;;9988558;28;20067;-69
2022/11/25 07:59:47;;;;;;;15.05;12.95;;;;;;;;;;9989765;28;20058;-69
2022/11/25 08:04:42;;;;;;;17.38;12.82;;;;;;;;;;9987879;28;20074;-69
2022/11/25 08:09:35;;;;;;;15.38;13.10;;;;;;;;;;9988541;28;20117;-69
2022/11/25 08:14:29;;;;;;;13.07;11.23;;;;;;;;;;9988921;28;20046;-67
2022/11/25 08:19:22;;;;;;;16.83;12.77;;;;;;;;;;9987398;28;20129;-70
2022/11/25 08:24:23;;;;;;;16.10;11.93;;;;;;;;;;9988608;28;20056;-71
2022/11/25 08:29:18;;;;;;;16.40;12.52;;;;;;;;;;9987975;28;20119;-74
2022/11/25 08:34:20;;;;;;;15.88;11.55;;;;;;;;;;9984574;28;20074;-74
2022/11/25 08:39:19;;;;;;;16.25;12.95;;;;;;;;;;9966666;28;20461;-73
2022/11/25 08:44:32;;;;;;;14.32;10.35;;;;;;;;;;9981474;28;20516;-73
2022/11/25 08:49:28;;;;;;;18.65;13.40;;;;;;;;;;9983100;28;20064;-75
2022/11/25 08:54:22;;;;;;;15.98;12.40;;;;;;;;;;9981884;28;20130;-75
2022/11/25 08:59:16;;;;;;;12.57;10.68;;;;;;;;;;9987815;28;20070;-75
2022/11/25 09:04:08;;;;;;;15.77;11.70;;;;;;;;;;9967341;28;20054;-72
2022/11/25 09:09:04;;;;;;;15.63;12.15;;;;;;;;;;9986221;28;20558;-72
2022/11/25 09:13:58;;;;;;;13.50;11.77;;;;;;;;;;9985706;28;20066;-70
2022/11/25 09:18:53;;;;;;;13.57;11.45;;;;;;;;;;9985538;28;20082;-69
2022/11/25 09:23:50;;;;;;;13.77;11.63;;;;;;;;;;9985286;28;20129;-69
2022/11/25 09:28:43;;;;;;;14.77;12.80;;;;;;;;;;9984961;28;20054;-70
2022/11/25 09:33:37;;;;;;;18.33;12.88;;;;;;;;;;9991955;28;20494;-69
2022/11/25 09:38:30;;;;;;;17.23;13.15;;;;;;;;;;9987710;28;20042;-68
2022/11/25 09:48:59;;;;;;;18.95;15.23;;;;;;;;;;9989382;28;20413;-69
2022/11/25 09:54:13;;;;;;;19.13;17.15;;;;;;;;;;9970225;28;20053;-73
2022/11/25 09:59:25;;;;;;;26.17;17.67;;;;;;;;;;9986533;28;20085;-69
2022/11/25 10:04:39;;;;;;;19.67;17.67;;;;;;;;;;9976772;28;20085;-68
2022/11/25 10:09:34;;;;;;;22.65;18.73;;;;;;;;;;9967458;28;20125;-69
2022/11/25 10:14:55;;;;;;;24.38;18.55;;;;;;;;;;9972874;28;20051;-68
2022/11/25 10:19:54;;;;;;;29.07;19.33;;;;;;;;;;9988732;28;20054;-68
2022/11/25 10:24:46;;;;;;;;;;;;;;;;;;9986612;28;20321;-68
2022/11/25 10:29:41;;;;;;;24.30;19.67;;;;;;;;;;9982888;28;19933;-68
2022/11/25 10:34:39;;;;;;;25.83;19.55;;;;;;;;;;9984767;28;20502;-68
2022/11/25 10:39:34;;;;;;;26.15;19.80;;;;;;;;;;9987596;28;20417;-68
2022/11/25 10:44:29;;;;;;;32.88;18.08;;;;;;;;;;9986603;28;20058;-68
2022/11/25 10:49:55;;;;;;;25.42;18.35;;;;;;;;;;9990812;28;20105;-68
2022/11/25 10:55:17;;;;;;;25.77;19.92;;;;;;;;;;9968509;28;20058;-68
2022/11/25 11:00:29;;;;;;;21.15;18.60;;;;;;;;;;9974672;28;20050;-69
2022/11/25 11:05:31;;;;;;;20.85;18.75;;;;;;;;;;9988119;28;20124;-68
2022/11/25 11:10:25;;;;;;;22.90;16.83;;;;;;;;;;9990365;28;20050;-70
2022/11/25 11:15:22;;;;;;;22.70;19.17;;;;;;;;;;9989490;28;20043;-69
2022/11/25 11:20:21;;;;;;;20.90;18.70;;;;;;;;;;9991125;28;20129;-70
2022/11/25 11:25:22;;;;;;;;;;;;;;;;;;9973936;28;20517;-66
2022/11/25 11:30:15;;;;;;;23.02;18.55;;;;;;;;;;9983032;28;19969;-69
2022/11/25 11:35:26;;;;;;;27.48;18.92;;;;;;;;;;10002741;28;20085;-68
2022/11/25 11:40:38;;;;;;;24.83;18.15;;;;;;;;;;9988656;28;20056;-69
2022/11/25 11:45:40;;;;;;;25.35;20.30;;;;;;;;;;9972468;28;20120;-67
2022/11/25 11:50:46;;;;;;;27.23;20.17;;;;;;;;;;9990648;28;20046;-68
2022/11/25 11:55:54;;;;;;;25.35;20.25;;;;;;;;;;9973356;28;20074;-65
2022/11/25 12:01:10;;;;;;;25.30;20.63;;;;;;;;;;9987465;28;20420;-65
2022/11/25 12:06:04;;;;;;;25.38;21.23;;;;;;;;;;9988861;28;20050;-65
2022/11/25 12:11:01;;;;;;;29.60;21.10;;;;;;;;;;9988126;28;20125;-65
2022/11/25 12:15:56;;;;;;;28.33;20.85;;;;;;;;;;9964546;28;20046;-65
2022/11/25 12:20:59;;;;;;;25.17;22.35;;;;;;;;;;9984867;28;20109;-65
2022/11/25 12:25:57;;;;;;;28.55;21.77;;;;;;;;;;9984843;28;20157;-65
2022/11/25 12:30:57;;;;;;;25.50;21.60;;;;;;;;;;9983035;28;20085;-65
2022/11/25 12:36:01;;;;;;;31.35;23.30;;;;;;;;;;9986379;28;20078;-64
2022/11/25 12:41:29;;;;;;;29.83;24.00;;;;;;;;;;9986139;28;20108;-65
2022/11/25 12:47:11;;;;;;;29.48;25.63;;;;;;;;;;9969260;28;20568;-65
2022/11/25 12:52:09;;;;;;;32.28;25.15;;;;;;;;;;9987397;28;20050;-65
2022/11/25 12:57:18;;;;;;;30.48;26.05;;;;;;;;;;9986314;28;20406;-65
2022/11/25 13:02:34;;;;;;;28.17;24.48;;;;;;;;;;9985010;28;20057;-65
2022/11/25 13:07:53;;;;;;;29.95;26.48;;;;;;;;;;9947629;28;20054;-65
2022/11/25 13:13:04;;;;;;;34.38;28.23;;;;;;;;;;9982592;28;20050;-65
2022/11/25 13:18:07;;;;;;;30.60;27.35;;;;;;;;;;9983277;28;20129;-65
2022/11/25 13:23:04;;;;;;;39.30;30.20;;;;;;;;;;9987403;28;20054;-65
2022/11/25 13:28:21;;;;;;;34.35;28.95;;;;;;;;;;9987608;28;20058;-65
2022/11/25 13:33:13;;;;;;;31.77;28.33;;;;;;;;;;9984761;28;20525;-65
2022/11/25 13:38:09;;;;;;;35.50;29.23;;;;;;;;;;9982826;28;20552;-66
2022/11/25 13:43:04;;;;;;;36.97;29.33;;;;;;;;;;9966146;28;20126;-66
2022/11/25 13:48:16;;;;;;;45.47;39.47;;;;;;;;;;9984844;28;20058;-65
2022/11/25 13:53:36;;;;;;;36.33;32.10;;;;;;;;;;9983021;28;20102;-66
2022/11/25 13:58:34;;;;;;;43.13;36.13;;;;;;;;;;9927281;28;20046;-65
2022/11/25 14:03:27;;;;;;;50.30;35.20;;;;;;;;;;9981636;28;20397;-65
2022/11/25 14:08:28;;;;;;;44.40;31.30;;;;;;;;;;9982116;28;20050;-66
2022/11/25 14:13:36;;;;;;;48.85;36.83;;;;;;;;;;9981301;28;20125;-65
2022/11/25 14:18:34;;;;;;;37.00;32.80;;;;;;;;;;9985153;28;20499;-66
2022/11/25 14:24:01;;;;;;;50.67;36.05;;;;;;;;;;9990729;28;20428;-67
2022/11/25 14:29:32;;;;;;;41.10;35.70;;;;;;;;;;9991306;28;20058;-67
2022/11/25 14:34:35;;;;;;;43.60;37.00;;;;;;;;;;9911652;28;20519;-66
2022/11/25 14:39:57;;;;;;;45.92;36.00;;;;;;;;;;9911660;28;20054;-67
2022/11/25 14:44:54;;;;;;;50.40;36.28;;;;;;;;;;9907075;28;20043;-67
2022/11/25 14:49:51;;;;;;;46.47;38.47;;;;;;;;;;9914888;28;20408;-67
2022/11/25 14:55:06;;;;;;;44.88;38.78;;;;;;;;;;9914136;28;20047;-67
2022/11/25 15:00:08;;;;;;;44.55;38.53;;;;;;;;;;9915041;28;20430;-67
2022/11/25 15:05:07;;;;;;;47.28;39.50;;;;;;;;;;9914117;28;20110;-66
2022/11/25 15:10:01;;;;;;;;;;;;;;;;;;9914144;28;20130;-66
2022/11/25 15:14:55;;;;;;;73.60;50.90;;;;;;;;;;9912238;28;19929;-66
2022/11/25 15:19:50;;;;;;;61.25;46.47;;;;;;;;;;9912915;28;20058;-66
2022/11/25 15:24:44;;;;;;;57.92;45.65;;;;;;;;;;9913273;28;20050;-66
2022/11/25 15:29:47;;;;;;;51.63;44.03;;;;;;;;;;9919742;28;20061;-66
2022/11/25 15:34:41;;;;;;;62.97;44.65;;;;;;;;;;9991001;28;20085;-66
2022/11/25 15:39:35;;;;;;;53.63;44.92;;;;;;;;;;9989891;28;20093;-67
2022/11/25 15:44:54;;;;;;;57.75;47.78;;;;;;;;;;9989965;28;20078;-67
2022/11/25 15:50:11;;;;;;;55.03;45.87;;;;;;;;;;9965381;28;20054;-68
2022/11/25 15:55:15;;;;;;;68.38;57.10;;;;;;;;;;9989534;28;20445;-68
2022/11/25 16:00:15;;;;;;;62.97;48.03;;;;;;;;;;9971939;28;20524;-67
2022/11/25 16:05:12;;;;;;;63.35;50.22;;;;;;;;;;9988359;28;20058;-69
2022/11/25 16:10:41;;;;;;;49.95;44.60;;;;;;;;;;9989270;28;20056;-69
2022/11/25 16:15:48;;;;;;;57.13;46.65;;;;;;;;;;9976808;28;20056;-68
2022/11/25 16:20:53;;;;;;;62.97;49.55;;;;;;;;;;9964595;28;20112;-69
2022/11/25 16:26:06;;;;;;;63.08;46.33;;;;;;;;;;9988167;28;20074;-71
2022/11/25 16:31:00;;;;;;;59.35;44.63;;;;;;;;;;9987016;28;20051;-70
2022/11/25 16:36:01;;;;;;;54.85;46.17;;;;;;;;;;9988090;28;20066;-71
2022/11/25 16:41:10;;;;;;;62.63;48.83;;;;;;;;;;9987750;28;20105;-71
2022/11/25 16:46:04;;;;;;;59.85;45.85;;;;;;;;;;9986644;28;20096;-70
2022/11/25 16:50:59;;;;;;;54.05;43.90;;;;;;;;;;9986810;28;20149;-71
2022/11/25 16:55:53;;;;;;;58.80;44.08;;;;;;;;;;9986892;28;20512;-70
2022/11/25 17:01:10;;;;;;;53.03;45.25;;;;;;;;;;9978288;28;20050;-70
2022/11/25 17:06:14;;;;;;;51.55;44.60;;;;;;;;;;9978514;28;20058;-70
2022/11/25 17:11:33;;;;;;;57.38;43.60;;;;;;;;;;9981996;28;20062;-70
2022/11/25 17:16:28;;;;;;;48.40;39.83;;;;;;;;;;9985876;28;20081;-69
2022/11/25 17:21:27;;;;;;;54.10;48.20;;;;;;;;;;9987460;28;20070;-69
2022/11/25 17:26:25;;;;;;;58.90;48.25;;;;;;;;;;9983733;28;20050;-70
2022/11/25 17:31:17;;;;;;;62.58;50.28;;;;;;;;;;9966725;28;20190;-70
2022/11/25 17:36:11;;;;;;;60.83;49.10;;;;;;;;;;9961529;28;20050;-70
2022/11/25 17:41:28;;;;;;;67.93;53.70;;;;;;;;;;9982645;28;20050;-70
2022/11/25 17:46:28;;;;;;;57.17;48.17;;;;;;;;;;9983439;28;20062;-69
2022/11/25 17:51:22;;;;;;;58.05;49.83;;;;;;;;;;9968961;28;20062;-69
2022/11/25 17:56:24;;;;;;;62.33;51.80;;;;;;;;;;9992572;28;20077;-70
2022/11/25 18:01:18;;;;;;;55.95;48.45;;;;;;;;;;9976527;28;20061;-70
2022/11/25 18:06:12;;;;;;;77.32;52.92;;;;;;;;;;9992127;28;20046;-70
2022/11/25 18:11:06;;;;;;;69.72;52.53;;;;;;;;;;9992512;28;20043;-69
2022/11/25 18:16:00;;;;;;;49.55;44.10;;;;;;;;;;9972978;28;20133;-70
2022/11/25 18:20:55;;;;;;;54.67;41.33;;;;;;;;;;9992278;28;20050;-70
2022/11/25 18:25:47;;;;;;;50.05;42.00;;;;;;;;;;9992447;28;20042;-69
2022/11/25 18:30:42;;;;;;;49.17;40.25;;;;;;;;;;9973769;28;20046;-70
2022/11/25 18:35:36;;;;;;;47.47;39.45;;;;;;;;;;9991792;28;20073;-69
2022/11/25 18:40:29;;;;;;;45.92;38.78;;;;;;;;;;9991508;28;20137;-70
2022/11/25 18:45:26;;;;;;;49.28;40.53;;;;;;;;;;9970032;28;20042;-70
2022/11/25 18:50:23;;;;;;;48.63;41.58;;;;;;;;;;9989389;28;20490;-70
2022/11/25 18:55:18;;;;;;;57.58;44.67;;;;;;;;;;9992875;28;20134;-70
2022/11/25 19:00:42;;;;;;;54.17;43.63;;;;;;;;;;9992942;28;20133;-70
2022/11/25 19:05:36;;;;;;;52.33;41.88;;;;;;;;;;9992323;28;20500;-70
2022/11/25 19:10:32;;;;;;;51.00;40.83;;;;;;;;;;9989859;28;20104;-68
2022/11/25 19:15:25;;;;;;;56.88;44.40;;;;;;;;;;9973440;28;20065;-68
2022/11/25 19:20:21;;;;;;;53.63;44.70;;;;;;;;;;9972920;28;20440;-69
2022/11/25 19:25:15;;;;;;;56.05;46.30;;;;;;;;;;9989520;28;20417;-68
2022/11/25 19:30:20;;;;;;;55.58;46.58;;;;;;;;;;9983061;28;20063;-67
2022/11/25 19:35:27;;;;;;;56.38;46.78;;;;;;;;;;9984124;28;20050;-68
2022/11/25 19:40:21;;;;;;;54.17;46.08;;;;;;;;;;9985494;28;20145;-67
2022/11/25 19:45:18;;;;;;;53.95;47.03;;;;;;;;;;9985984;28;20062;-64
2022/11/25 19:50:20;;;;;;;57.72;50.00;;;;;;;;;;9988384;28;20050;-66
2022/11/25 19:55:16;;;;;;;62.65;53.72;;;;;;;;;;9968960;28;20062;-65
2022/11/25 20:00:14;;;;;;;59.03;50.88;;;;;;;;;;9991260;28;20507;-65
2022/11/25 20:05:10;;;;;;;65.53;55.20;;;;;;;;;;9989402;28;20050;-66
2022/11/25 20:10:24;;;;;;;70.82;54.85;;;;;;;;;;9970538;28;20054;-64
2022/11/25 20:15:18;;;;;;;69.10;55.75;;;;;;;;;;9968855;28;20137;-64
2022/11/25 20:20:11;;;;;;;77.68;61.95;;;;;;;;;;9986491;28;20061;-64
2022/11/25 20:25:06;;;;;;;60.80;53.08;;;;;;;;;;9987205;28;20050;-65
2022/11/25 20:30:00;;;;;;;62.67;52.67;;;;;;;;;;9986049;28;20078;-65
2022/11/25 20:34:54;;;;;;;64.90;54.17;;;;;;;;;;9986427;28;20061;-65
2022/11/25 20:39:48;;;;;;;63.40;53.00;;;;;;;;;;9986703;28;20058;-65
2022/11/25 20:44:41;;;;;;;71.80;60.22;;;;;;;;;;9966563;28;20122;-65
2022/11/25 20:49:36;;;;;;;67.90;55.50;;;;;;;;;;9986352;28;20054;-65
2022/11/25 20:54:34;;;;;;;63.00;51.13;;;;;;;;;;9986273;28;20085;-66
2022/11/25 20:59:29;;;;;;;59.27;51.83;;;;;;;;;;9986037;28;20046;-65
2022/11/25 21:04:24;;;;;;;62.28;51.42;;;;;;;;;;9984968;28;20058;-65
2022/11/25 21:09:19;;;;;;;62.25;47.15;;;;;;;;;;9986492;28;20054;-65
2022/11/25 21:14:18;;;;;;;58.95;46.35;;;;;;;;;;9983431;28;20054;-65
2022/11/25 21:19:11;;;;;;;125.20;89.07;;;;;;;;;;9986886;28;20100;-64
2022/11/25 21:24:26;;;;;;;326.08;197.25;;;;;;;;;;9986674;28;20078;-65
2022/11/25 21:29:19;;;;;;;204.23;124.43;;;;;;;;;;9973194;28;20061;-65
2022/11/25 21:34:13;;;;;;;66.32;54.50;;;;;;;;;;9977350;28;20050;-64
2022/11/25 21:39:42;;;;;;;62.42;50.95;;;;;;;;;;9993759;28;20943;-65
2022/11/25 21:44:38;;;;;;;60.60;50.42;;;;;;;;;;9990644;28;20060;-64
2022/11/25 21:49:33;;;;;;;63.83;51.17;;;;;;;;;;9975899;28;20104;-64
2022/11/25 21:54:26;;;;;;;59.15;51.60;;;;;;;;;;9993427;28;20050;-64
2022/11/25 21:59:20;;;;;;;62.25;54.50;;;;;;;;;;9993289;28;20480;-65
2022/11/25 22:04:15;;;;;;;57.90;49.40;;;;;;;;;;9993053;28;20112;-65
2022/11/25 22:09:09;;;;;;;59.08;49.28;;;;;;;;;;9991828;28;20093;-64
2022/11/25 22:14:05;;;;;;;62.03;52.90;;;;;;;;;;9992290;28;20042;-63
2022/11/25 22:19:00;;;;;;;58.03;51.17;;;;;;;;;;9990120;28;20133;-65
2022/11/25 22:23:53;;;;;;;64.70;54.30;;;;;;;;;;9988988;28;20042;-64
2022/11/25 22:28:49;;;;;;;69.13;54.03;;;;;;;;;;9988916;28;20069;-65
2022/11/25 22:33:43;;;;;;;68.60;53.58;;;;;;;;;;9964070;28;20063;-67
2022/11/25 22:38:37;;;;;;;66.57;55.05;;;;;;;;;;9950011;28;20422;-67
2022/11/25 22:43:33;;;;;;;65.82;52.75;;;;;;;;;;9951305;28;20133;-67
2022/11/25 22:48:33;;;;;;;60.90;53.75;;;;;;;;;;9948019;28;20066;-67
2022/11/25 22:53:27;;;;;;;68.38;54.58;;;;;;;;;;9952565;28;20051;-67
2022/11/25 22:58:22;;;;;;;69.85;55.22;;;;;;;;;;9952197;28;20070;-67
2022/11/25 23:03:20;;;;;;;65.72;57.10;;;;;;;;;;9952556;28;20394;-67
2022/11/25 23:08:23;;;;;;;63.47;55.40;;;;;;;;;;9951405;28;20054;-67
2022/11/25 23:13:17;;;;;;;66.32;54.72;;;;;;;;;;9951861;28;20085;-66
2022/11/25 23:18:24;;;;;;;69.30;54.80;;;;;;;;;;9952136;28;20058;-67
2022/11/25 23:23:28;;;;;;;65.15;52.85;;;;;;;;;;9950823;28;20105;-66
2022/11/25 23:28:22;;;;;;;66.20;55.85;;;;;;;;;;9949364;28;20054;-66
2022/11/25 23:33:27;;;;;;;60.80;52.53;;;;;;;;;;9984226;28;20485;-66
2022/11/25 23:38:23;;;;;;;63.20;52.08;;;;;;;;;;9985713;28;20046;-66
2022/11/25 23:43:17;;;;;;;67.32;55.58;;;;;;;;;;9989980;28;20074;-66
2022/11/25 23:48:11;;;;;;;62.67;54.55;;;;;;;;;;9990148;28;20058;-67
2022/11/25 23:53:09;;;;;;;70.10;52.33;;;;;;;;;;9988067;28;20054;-66
2022/11/25 23:58:04;;;;;;;61.20;54.58;;;;;;;;;;9966622;28;20050;-66
